Time;durP1;ratioP1;P1;durP2;ratioP2;P2;SDS_P1;SDS_P2;PMS_P1;PMS_P2;Temp;Humidity;BMP_temperature;BMP_pressure;BME280_temperature;BME280_humidity;BME280_pressure;Samples;Min_cycle;Max_cycle;Signal;HPM_P1;HPM_P2
2023/11/17 00:02:26;;;;;;;2.03;1.50;;;;;;;;;;5114622;28;20705;-83
2023/11/17 00:04:54;;;;;;;2.17;1.97;;;;;;;;;;5100647;28;20200;-83
2023/11/17 00:07:21;;;;;;;3.27;2.17;;;;;;;;;;5105399;28;20273;-83
2023/11/17 00:09:47;;;;;;;2.10;1.57;;;;;;;;;;5110303;28;20208;-84
2023/11/17 00:12:14;;;;;;;1.30;1.20;;;;;;;;;;5114578;28;20195;-83
2023/11/17 00:14:42;;;;;;;1.70;1.50;;;;;;;;;;5114205;28;20650;-84
2023/11/17 00:17:10;;;;;;;1.93;1.77;;;;;;;;;;5104251;28;20227;-84
2023/11/17 00:19:37;;;;;;;2.37;1.67;;;;;;;;;;5111183;28;20207;-84
2023/11/17 00:22:06;;;;;;;1.67;1.57;;;;;;;;;;5114442;28;20219;-84
2023/11/17 00:24:33;;;;;;;2.60;2.20;;;;;;;;;;5095540;28;20279;-83
2023/11/17 00:27:00;;;;;;;6.57;4.10;;;;;;;;;;5093589;28;20325;-84
2023/11/17 00:29:27;;;;;;;2.93;2.40;;;;;;;;;;5099064;28;20581;-83
2023/11/17 00:31:55;;;;;;;5.10;3.33;;;;;;;;;;5101580;28;20196;-83
2023/11/17 00:34:22;;;;;;;2.00;1.67;;;;;;;;;;5106915;28;20196;-83
2023/11/17 00:36:48;;;;;;;3.50;2.13;;;;;;;;;;5105994;28;20204;-83
2023/11/17 00:39:17;;;;;;;2.57;1.50;;;;;;;;;;5099344;28;20215;-83
2023/11/17 00:41:45;;;;;;;2.23;1.60;;;;;;;;;;5101150;28;20304;-83
2023/11/17 00:44:12;;;;;;;2.00;1.67;;;;;;;;;;5107154;28;20208;-83
2023/11/17 00:46:38;;;;;;;1.50;1.40;;;;;;;;;;5093649;28;20223;-84
2023/11/17 00:49:05;;;;;;;3.30;1.80;;;;;;;;;;5099240;28;20196;-83
2023/11/17 00:51:33;;;;;;;2.70;2.03;;;;;;;;;;5113823;28;20200;-83
2023/11/17 00:54:04;;;;;;;3.03;2.60;;;;;;;;;;5099452;28;20199;-83
2023/11/17 00:56:33;;;;;;;3.13;2.20;;;;;;;;;;5113705;28;20290;-84
2023/11/17 00:59:00;;;;;;;2.50;2.00;;;;;;;;;;5100814;28;20222;-83
2023/11/17 01:01:27;;;;;;;2.80;2.33;;;;;;;;;;5098746;28;20217;-83
2023/11/17 01:03:54;;;;;;;3.50;1.83;;;;;;;;;;5101175;28;20230;-83
2023/11/17 01:06:21;;;;;;;5.13;1.90;;;;;;;;;;5113393;28;20203;-83
2023/11/17 01:08:48;;;;;;;2.40;2.20;;;;;;;;;;5113394;28;20203;-83
2023/11/17 01:11:14;;;;;;;2.17;1.93;;;;;;;;;;5111543;28;20210;-83
2023/11/17 01:13:42;;;;;;;1.40;1.30;;;;;;;;;;5093243;28;20279;-83
2023/11/17 01:16:09;;;;;;;1.70;1.60;;;;;;;;;;5108549;28;20622;-83
2023/11/17 01:18:35;;;;;;;1.53;1.43;;;;;;;;;;5104364;28;20726;-83
2023/11/17 01:21:05;;;;;;;3.27;1.27;;;;;;;;;;5106208;28;20199;-83
2023/11/17 01:23:32;;;;;;;2.87;1.80;;;;;;;;;;5102468;28;20203;-83
2023/11/17 01:25:59;;;;;;;5.33;3.13;;;;;;;;;;5112346;28;20670;-83
2023/11/17 01:28:25;;;;;;;2.83;2.50;;;;;;;;;;5112575;28;20203;-83
2023/11/17 01:30:54;;;;;;;5.03;3.93;;;;;;;;;;5096339;28;20204;-83
2023/11/17 01:33:20;;;;;;;9.63;7.70;;;;;;;;;;5092589;28;20588;-84
2023/11/17 01:35:48;;;;;;;9.87;8.50;;;;;;;;;;5095582;28;20634;-83
2023/11/17 01:38:15;;;;;;;8.13;5.47;;;;;;;;;;5102837;28;20228;-83
2023/11/17 01:40:42;;;;;;;3.77;2.77;;;;;;;;;;5109730;28;20223;-83
2023/11/17 01:43:13;;;;;;;2.90;2.43;;;;;;;;;;5113252;28;20223;-83
2023/11/17 01:45:40;;;;;;;2.70;2.50;;;;;;;;;;5098955;28;20366;-83
2023/11/17 01:48:08;;;;;;;3.73;3.43;;;;;;;;;;5100559;28;20294;-83
2023/11/17 01:50:35;;;;;;;5.40;3.33;;;;;;;;;;5095998;28;20682;-83
2023/11/17 01:53:03;;;;;;;2.80;2.60;;;;;;;;;;5112347;28;20207;-84
2023/11/17 01:55:30;;;;;;;2.97;2.77;;;;;;;;;;5105991;28;20201;-83
2023/11/17 01:57:58;;;;;;;4.87;3.50;;;;;;;;;;5105010;28;20231;-83
2023/11/17 02:00:25;;;;;;;4.10;2.73;;;;;;;;;;5092422;28;20690;-84
2023/11/17 02:02:52;;;;;;;3.70;2.73;;;;;;;;;;5092236;28;20222;-84
2023/11/17 02:05:24;;;;;;;3.90;3.50;;;;;;;;;;5091739;28;20197;-83
2023/11/17 02:08:04;;;;;;;5.20;4.70;;;;;;;;;;5092500;28;20204;-84
2023/11/17 02:10:37;;;;;;;4.30;4.00;;;;;;;;;;5102592;28;20211;-83
2023/11/17 02:13:08;;;;;;;4.57;4.17;;;;;;;;;;5095341;28;20200;-84
2023/11/17 02:15:39;;;;;;;3.57;3.27;;;;;;;;;;5101197;28;20232;-83
2023/11/17 02:18:10;;;;;;;4.17;2.80;;;;;;;;;;5109558;28;20227;-83
2023/11/17 02:20:41;;;;;;;4.07;2.50;;;;;;;;;;5111931;28;20199;-83
2023/11/17 02:23:10;;;;;;;3.20;2.57;;;;;;;;;;5098275;28;20204;-84
2023/11/17 02:25:46;;;;;;;2.47;2.27;;;;;;;;;;5111821;28;20208;-84
2023/11/17 02:28:30;;;;;;;2.80;1.80;;;;;;;;;;5111859;28;20242;-83
2023/11/17 02:30:59;;;;;;;1.90;1.77;;;;;;;;;;5111627;28;20211;-83
2023/11/17 02:33:26;;;;;;;2.67;2.00;;;;;;;;;;5100577;28;20243;-83
2023/11/17 02:35:55;;;;;;;2.10;1.97;;;;;;;;;;5091299;28;20666;-83
2023/11/17 02:38:22;;;;;;;3.07;1.90;;;;;;;;;;5091529;28;20224;-84
2023/11/17 02:40:55;;;;;;;2.30;2.10;;;;;;;;;;5109705;28;20202;-83
2023/11/17 02:43:29;;;;;;;2.00;1.77;;;;;;;;;;5098851;28;20694;-83
2023/11/17 02:45:56;;;;;;;2.63;2.10;;;;;;;;;;5091200;28;20211;-84
2023/11/17 02:48:24;;;;;;;4.83;2.70;;;;;;;;;;5105393;28;20207;-84
2023/11/17 02:51:03;;;;;;;2.57;2.23;;;;;;;;;;5091334;28;20204;-83
2023/11/17 02:53:31;;;;;;;3.20;2.33;;;;;;;;;;5104850;28;20253;-83
2023/11/17 02:56:00;;;;;;;2.97;2.77;;;;;;;;;;5091146;28;20200;-83
2023/11/17 02:58:27;;;;;;;2.40;2.00;;;;;;;;;;5108774;28;20235;-84
2023/11/17 03:00:54;;;;;;;4.03;2.50;;;;;;;;;;5101383;28;20196;-83
2023/11/17 03:03:22;;;;;;;2.70;2.40;;;;;;;;;;5090860;28;20666;-84
2023/11/17 03:05:57;;;;;;;2.43;2.03;;;;;;;;;;5091708;28;20274;-84
2023/11/17 03:08:24;;;;;;;3.00;2.80;;;;;;;;;;5104847;28;20203;-84
2023/11/17 03:10:51;;;;;;;2.47;2.27;;;;;;;;;;5103235;28;20215;-84
2023/11/17 03:13:18;;;;;;;2.43;2.20;;;;;;;;;;5105678;28;20204;-83
2023/11/17 03:15:45;;;;;;;4.07;2.67;;;;;;;;;;5091165;28;20210;-84
2023/11/17 03:18:13;;;;;;;3.90;2.33;;;;;;;;;;5096958;28;20234;-83
2023/11/17 03:20:40;;;;;;;2.60;2.00;;;;;;;;;;5111601;28;20556;-84
2023/11/17 03:23:08;;;;;;;2.07;1.87;;;;;;;;;;5104674;28;20586;-84
2023/11/17 03:25:39;;;;;;;2.37;2.03;;;;;;;;;;5104274;28;20199;-83
2023/11/17 03:28:10;;;;;;;4.53;4.13;;;;;;;;;;5111047;28;20677;-83
2023/11/17 03:30:38;;;;;;;4.03;3.63;;;;;;;;;;5110353;28;20666;-84
2023/11/17 03:33:06;;;;;;;4.50;3.43;;;;;;;;;;5098024;28;20199;-84
2023/11/17 03:35:33;;;;;;;2.87;2.60;;;;;;;;;;5110225;28;20204;-83
2023/11/17 03:38:00;;;;;;;3.60;3.27;;;;;;;;;;5103438;28;20208;-83
2023/11/17 03:40:28;;;;;;;2.87;2.57;;;;;;;;;;5090754;28;20196;-83
2023/11/17 03:42:55;;;;;;;2.90;2.60;;;;;;;;;;5098571;28;20232;-83
2023/11/17 03:45:22;;;;;;;4.13;2.80;;;;;;;;;;5109715;28;20218;-83
2023/11/17 03:47:49;;;;;;;2.40;2.20;;;;;;;;;;5090636;28;20209;-83
2023/11/17 03:50:16;;;;;;;2.30;2.10;;;;;;;;;;5091327;28;20204;-83
2023/11/17 03:52:43;;;;;;;3.13;2.40;;;;;;;;;;5102609;28;20207;-83
2023/11/17 03:55:12;;;;;;;3.47;2.93;;;;;;;;;;5090462;28;20617;-83
2023/11/17 03:57:40;;;;;;;5.60;5.03;;;;;;;;;;5099080;28;20207;-83
2023/11/17 04:00:09;;;;;;;3.47;3.07;;;;;;;;;;5104946;28;20224;-83
2023/11/17 04:02:36;;;;;;;5.10;2.60;;;;;;;;;;5108026;28;20200;-83
2023/11/17 04:05:04;;;;;;;5.10;3.03;;;;;;;;;;5105284;28;20201;-83
2023/11/17 04:07:31;;;;;;;3.40;2.20;;;;;;;;;;5108420;28;20200;-83
2023/11/17 04:09:59;;;;;;;3.50;2.90;;;;;;;;;;5106887;28;20235;-83
2023/11/17 04:12:25;;;;;;;4.03;3.07;;;;;;;;;;5099152;28;20246;-84
2023/11/17 04:14:53;;;;;;;3.10;2.80;;;;;;;;;;5092285;28;20204;-83
2023/11/17 04:17:20;;;;;;;3.57;2.87;;;;;;;;;;5104676;28;20207;-83
2023/11/17 04:19:47;;;;;;;4.00;3.60;;;;;;;;;;5113721;28;20223;-84
2023/11/17 04:22:14;;;;;;;7.43;6.73;;;;;;;;;;5113986;28;20265;-83
2023/11/17 04:24:42;;;;;;;9.97;7.00;;;;;;;;;;5110541;28;20200;-80
2023/11/17 04:27:08;;;;;;;7.63;5.73;;;;;;;;;;5102040;28;20208;-81
2023/11/17 04:29:35;;;;;;;11.50;8.77;;;;;;;;;;5106724;28;20203;-81
2023/11/17 04:32:07;;;;;;;19.53;15.73;;;;;;;;;;5093308;28;20667;-80
2023/11/17 04:34:33;;;;;;;29.73;25.83;;;;;;;;;;5092695;28;20220;-81
2023/11/17 04:37:04;;;;;;;9.80;8.87;;;;;;;;;;5107810;28;20220;-78
2023/11/17 04:39:31;;;;;;;4.87;3.77;;;;;;;;;;5113120;28;20222;-79
2023/11/17 04:41:58;;;;;;;5.30;4.03;;;;;;;;;;5110846;28;20220;-79
2023/11/17 04:44:25;;;;;;;6.73;4.83;;;;;;;;;;5093311;28;20196;-79
2023/11/17 04:46:54;;;;;;;9.40;7.87;;;;;;;;;;5106436;28;20210;-78
2023/11/17 04:49:23;;;;;;;5.00;4.30;;;;;;;;;;5102112;28;20213;-82
2023/11/17 04:51:50;;;;;;;4.90;4.00;;;;;;;;;;5110004;28;20196;-81
2023/11/17 04:54:16;;;;;;;4.93;3.97;;;;;;;;;;5092682;28;20211;-81
2023/11/17 04:56:43;;;;;;;5.70;4.80;;;;;;;;;;5106162;28;20201;-81
2023/11/17 04:59:13;;;;;;;3.87;3.53;;;;;;;;;;5103141;28;20231;-82
2023/11/17 05:01:40;;;;;;;3.63;3.23;;;;;;;;;;5112451;28;20713;-81
2023/11/17 05:04:07;;;;;;;2.97;2.53;;;;;;;;;;5103362;28;20211;-82
2023/11/17 05:06:36;;;;;;;10.63;6.80;;;;;;;;;;5109136;28;20252;-82
2023/11/17 05:09:10;;;;;;;13.37;7.73;;;;;;;;;;5108452;28;20200;-82
2023/11/17 05:11:38;;;;;;;5.53;5.03;;;;;;;;;;5105763;28;20654;-82
2023/11/17 05:14:06;;;;;;;3.53;3.13;;;;;;;;;;5105685;28;20211;-82
2023/11/17 05:16:34;;;;;;;4.53;4.13;;;;;;;;;;5101956;28;20231;-81
2023/11/17 05:19:03;;;;;;;5.23;4.37;;;;;;;;;;5104528;28;20226;-82
2023/11/17 05:21:31;;;;;;;5.10;4.57;;;;;;;;;;5110082;28;20270;-79
2023/11/17 05:23:59;;;;;;;4.27;3.70;;;;;;;;;;5095618;28;20299;-82
2023/11/17 05:26:26;;;;;;;33.63;20.17;;;;;;;;;;5092359;28;20204;-81
2023/11/17 05:28:53;;;;;;;19.30;12.10;;;;;;;;;;5103323;28;20697;-82
2023/11/17 05:31:20;;;;;;;5.33;4.37;;;;;;;;;;5098730;28;20210;-82
2023/11/17 05:33:47;;;;;;;11.03;7.30;;;;;;;;;;5112685;28;20199;-83
2023/11/17 05:36:15;;;;;;;16.97;10.23;;;;;;;;;;5108613;28;20231;-83
2023/11/17 05:38:42;;;;;;;7.37;5.07;;;;;;;;;;5091742;28;20231;-83
2023/11/17 05:41:13;;;;;;;5.87;5.00;;;;;;;;;;5097008;28;20191;-83
2023/11/17 05:43:44;;;;;;;4.83;4.00;;;;;;;;;;5112803;28;20210;-83
2023/11/17 05:46:14;;;;;;;3.63;3.33;;;;;;;;;;5106077;28;20345;-83
2023/11/17 05:48:41;;;;;;;5.47;4.93;;;;;;;;;;5091989;28;20200;-82
2023/11/17 05:51:09;;;;;;;4.87;4.30;;;;;;;;;;5098265;28;20206;-83
2023/11/17 05:53:38;;;;;;;5.07;4.30;;;;;;;;;;5098161;28;20204;-83
2023/11/17 05:56:06;;;;;;;7.33;4.57;;;;;;;;;;5104963;28;20702;-83
2023/11/17 05:58:35;;;;;;;9.27;5.17;;;;;;;;;;5091473;28;20208;-82
2023/11/17 06:01:02;;;;;;;6.07;4.77;;;;;;;;;;5102891;28;20287;-83
2023/11/17 06:03:29;;;;;;;7.87;4.03;;;;;;;;;;5093940;28;20196;-83
2023/11/17 06:05:56;;;;;;;3.93;3.53;;;;;;;;;;5091713;28;20200;-82
2023/11/17 06:08:22;;;;;;;8.17;4.17;;;;;;;;;;5095474;28;20211;-83
2023/11/17 06:10:49;;;;;;;15.77;4.70;;;;;;;;;;5099976;28;20238;-83
2023/11/17 06:13:17;;;;;;;5.13;3.93;;;;;;;;;;5107285;28;20199;-80
2023/11/17 06:15:46;;;;;;;7.87;4.80;;;;;;;;;;5110793;28;20291;-79
2023/11/17 06:18:14;;;;;;;66.33;41.67;;;;;;;;;;5110792;28;20199;-81
2023/11/17 06:20:41;;;;;;;89.17;52.03;;;;;;;;;;5110555;28;20223;-79
2023/11/17 06:23:08;;;;;;;143.53;83.93;;;;;;;;;;5107797;28;20624;-80
2023/11/17 06:25:35;;;;;;;113.20;73.23;;;;;;;;;;5108713;28;20627;-79
2023/11/17 06:28:03;;;;;;;34.77;25.63;;;;;;;;;;5101145;28;20199;-80
2023/11/17 06:30:30;;;;;;;16.93;12.47;;;;;;;;;;5105395;28;20200;-81
2023/11/17 06:32:59;;;;;;;15.40;8.13;;;;;;;;;;5108450;28;20204;-80
2023/11/17 06:35:25;;;;;;;8.37;5.37;;;;;;;;;;5107015;28;20663;-80
2023/11/17 06:37:52;;;;;;;4.93;3.80;;;;;;;;;;5099284;28;20222;-80
2023/11/17 06:40:19;;;;;;;9.10;5.53;;;;;;;;;;5097016;28;20224;-80
2023/11/17 06:42:46;;;;;;;6.63;5.67;;;;;;;;;;5102808;28;20231;-80
2023/11/17 06:45:13;;;;;;;9.93;7.13;;;;;;;;;;5103977;28;20207;-81
2023/11/17 06:47:43;;;;;;;12.70;6.57;;;;;;;;;;5100520;28;20218;-82
2023/11/17 06:50:13;;;;;;;9.50;5.27;;;;;;;;;;5108080;28;20227;-79
2023/11/17 06:52:41;;;;;;;4.23;3.37;;;;;;;;;;5100270;28;20202;-82
2023/11/17 06:55:09;;;;;;;3.37;2.90;;;;;;;;;;5110873;28;20335;-83
2023/11/17 06:57:36;;;;;;;7.13;2.53;;;;;;;;;;5111386;28;20203;-85
2023/11/17 07:00:07;;;;;;;3.57;3.27;;;;;;;;;;5108773;28;20236;-85
2023/11/17 07:02:34;;;;;;;2.57;2.37;;;;;;;;;;5101485;28;20204;-85
2023/11/17 07:05:02;;;;;;;4.07;2.10;;;;;;;;;;5097826;28;20608;-84
2023/11/17 07:07:31;;;;;;;2.03;1.83;;;;;;;;;;5100404;28;20212;-84
2023/11/17 07:09:58;;;;;;;2.13;1.90;;;;;;;;;;5091296;28;20205;-85
2023/11/17 07:12:25;;;;;;;4.53;2.20;;;;;;;;;;5091425;28;20212;-85
2023/11/17 07:14:54;;;;;;;2.27;2.03;;;;;;;;;;5109969;28;20214;-85
2023/11/17 07:17:23;;;;;;;6.20;2.67;;;;;;;;;;5111813;28;20231;-85
2023/11/17 07:19:49;;;;;;;2.77;2.47;;;;;;;;;;5105216;28;20216;-83
2023/11/17 07:22:16;;;;;;;4.97;3.00;;;;;;;;;;5090128;28;20241;-80
2023/11/17 07:24:44;;;;;;;3.10;2.80;;;;;;;;;;5090121;28;20693;-80
2023/11/17 07:27:14;;;;;;;2.17;1.97;;;;;;;;;;5088711;28;20201;-80
2023/11/17 07:29:41;;;;;;;3.17;2.67;;;;;;;;;;5097464;28;20199;-80
2023/11/17 07:32:07;;;;;;;2.93;2.70;;;;;;;;;;5109999;28;20203;-80
2023/11/17 07:34:34;;;;;;;2.60;2.40;;;;;;;;;;5090455;28;20228;-80
2023/11/17 07:37:03;;;;;;;2.67;2.37;;;;;;;;;;5090774;28;20204;-80
2023/11/17 07:39:30;;;;;;;4.37;2.87;;;;;;;;;;5089977;28;20228;-80
2023/11/17 07:41:58;;;;;;;2.30;2.10;;;;;;;;;;5091263;28;20224;-81
2023/11/17 07:44:25;;;;;;;2.33;2.00;;;;;;;;;;5102300;28;20208;-81
2023/11/17 07:46:52;;;;;;;3.43;2.80;;;;;;;;;;5090148;28;20578;-80
2023/11/17 07:49:19;;;;;;;4.77;3.10;;;;;;;;;;5101553;28;20238;-80
2023/11/17 07:51:47;;;;;;;5.70;2.07;;;;;;;;;;5098639;28;20200;-80
2023/11/17 07:54:16;;;;;;;8.07;3.20;;;;;;;;;;5103333;28;20199;-80
2023/11/17 07:56:42;;;;;;;8.20;2.93;;;;;;;;;;5101136;28;20218;-80
2023/11/17 07:59:12;;;;;;;3.00;2.40;;;;;;;;;;5104515;28;20205;-80
2023/11/17 08:01:39;;;;;;;3.50;2.20;;;;;;;;;;5097028;28;20211;-79
2023/11/17 08:04:08;;;;;;;5.00;2.40;;;;;;;;;;5104266;28;20201;-80
2023/11/17 08:06:36;;;;;;;2.30;2.10;;;;;;;;;;5107516;28;20569;-81
2023/11/17 08:09:09;;;;;;;2.90;2.60;;;;;;;;;;5093952;28;20228;-79
2023/11/17 08:11:35;;;;;;;3.57;2.40;;;;;;;;;;5094135;28;20208;-80
2023/11/17 08:14:05;;;;;;;3.27;2.20;;;;;;;;;;5105396;28;20206;-79
2023/11/17 08:16:33;;;;;;;3.80;2.57;;;;;;;;;;5100693;28;20203;-80
2023/11/17 08:19:00;;;;;;;5.33;2.40;;;;;;;;;;5101208;28;20196;-79
2023/11/17 08:21:27;;;;;;;2.67;2.10;;;;;;;;;;5106604;28;20220;-80
2023/11/17 08:23:54;;;;;;;1.60;1.50;;;;;;;;;;5093279;28;20208;-80
2023/11/17 08:26:21;;;;;;;1.47;1.37;;;;;;;;;;5113803;28;20203;-79
2023/11/17 08:28:48;;;;;;;3.40;2.07;;;;;;;;;;5100834;28;20200;-79
2023/11/17 08:31:15;;;;;;;2.33;2.13;;;;;;;;;;5106487;28;20562;-80
2023/11/17 08:33:44;;;;;;;5.27;2.57;;;;;;;;;;5093332;28;20211;-79
2023/11/17 08:36:17;;;;;;;2.37;2.07;;;;;;;;;;5093227;28;20219;-79
2023/11/17 08:38:44;;;;;;;2.33;1.93;;;;;;;;;;5107222;28;20210;-79
2023/11/17 08:41:12;;;;;;;4.40;2.20;;;;;;;;;;5092917;28;20263;-80
2023/11/17 08:43:39;;;;;;;4.67;2.83;;;;;;;;;;5093275;28;20202;-79
2023/11/17 08:46:06;;;;;;;2.97;2.47;;;;;;;;;;5102930;28;20598;-79
2023/11/17 08:48:34;;;;;;;3.53;2.73;;;;;;;;;;5110528;28;20260;-79
2023/11/17 08:51:04;;;;;;;2.00;1.80;;;;;;;;;;5092991;28;20207;-79
2023/11/17 08:53:31;;;;;;;2.20;2.00;;;;;;;;;;5096602;28;20203;-79
2023/11/17 08:56:00;;;;;;;1.70;1.60;;;;;;;;;;5102536;28;20204;-79
2023/11/17 08:58:27;;;;;;;1.60;1.50;;;;;;;;;;5106989;28;20253;-79
2023/11/17 09:00:55;;;;;;;2.13;1.90;;;;;;;;;;5092030;28;20232;-79
2023/11/17 09:03:21;;;;;;;2.20;1.70;;;;;;;;;;5093631;28;20203;-79
2023/11/17 09:05:48;;;;;;;1.47;1.37;;;;;;;;;;5103272;28;20205;-79
2023/11/17 09:08:16;;;;;;;3.93;2.63;;;;;;;;;;5108898;28;20287;-79
2023/11/17 09:10:43;;;;;;;2.60;2.33;;;;;;;;;;5092911;28;20276;-79
2023/11/17 09:13:11;;;;;;;2.40;1.50;;;;;;;;;;5092633;28;20586;-79
2023/11/17 09:15:39;;;;;;;2.47;2.27;;;;;;;;;;5092772;28;20208;-79
2023/11/17 09:18:07;;;;;;;2.53;2.33;;;;;;;;;;5092703;28;20665;-79
2023/11/17 09:20:36;;;;;;;3.40;2.93;;;;;;;;;;5105014;28;20223;-79
2023/11/17 09:23:06;;;;;;;2.87;2.43;;;;;;;;;;5113398;28;20609;-79
2023/11/17 09:25:34;;;;;;;3.37;2.20;;;;;;;;;;5099469;28;20632;-78
2023/11/17 09:28:02;;;;;;;3.17;2.40;;;;;;;;;;5092502;28;20204;-79
2023/11/17 09:30:30;;;;;;;8.37;2.47;;;;;;;;;;5090339;28;20204;-79
2023/11/17 09:32:58;;;;;;;3.83;2.27;;;;;;;;;;5099843;28;20665;-79
2023/11/17 09:35:27;;;;;;;9.67;2.60;;;;;;;;;;5097418;28;20228;-79
2023/11/17 09:37:54;;;;;;;3.57;2.63;;;;;;;;;;5092591;28;20218;-79
2023/11/17 09:40:21;;;;;;;5.40;3.00;;;;;;;;;;5091665;28;20726;-79
2023/11/17 09:42:53;;;;;;;3.83;2.67;;;;;;;;;;5101577;28;20230;-79
2023/11/17 09:45:22;;;;;;;3.17;1.80;;;;;;;;;;5095227;28;20228;-79
2023/11/17 09:47:53;;;;;;;2.80;2.00;;;;;;;;;;5092204;28;20208;-79
2023/11/17 09:50:21;;;;;;;4.60;1.97;;;;;;;;;;5104723;28;20675;-79
2023/11/17 09:52:49;;;;;;;2.00;1.80;;;;;;;;;;5103204;28;20207;-79
2023/11/17 09:55:17;;;;;;;2.03;1.83;;;;;;;;;;5111825;28;20221;-79
2023/11/17 09:57:45;;;;;;;3.50;2.20;;;;;;;;;;5112255;28;20223;-79
2023/11/17 10:00:20;;;;;;;2.67;1.77;;;;;;;;;;5098270;28;20225;-79
2023/11/17 10:02:51;;;;;;;3.47;1.90;;;;;;;;;;5111908;28;20203;-79
2023/11/17 10:05:19;;;;;;;6.40;3.90;;;;;;;;;;5098455;28;20591;-79
2023/11/17 10:07:48;;;;;;;5.43;2.63;;;;;;;;;;5098283;28;20730;-79
2023/11/17 10:10:16;;;;;;;2.17;1.97;;;;;;;;;;5091261;28;20204;-79
2023/11/17 10:12:44;;;;;;;2.17;1.80;;;;;;;;;;5090644;28;20204;-79
2023/11/17 10:15:18;;;;;;;2.30;2.10;;;;;;;;;;5098922;28;20614;-79
2023/11/17 10:17:47;;;;;;;2.00;1.90;;;;;;;;;;5096578;28;20221;-79
2023/11/17 10:20:17;;;;;;;3.77;2.30;;;;;;;;;;5100734;28;20254;-79
2023/11/17 10:22:47;;;;;;;2.77;1.70;;;;;;;;;;5094872;28;20655;-79
2023/11/17 10:25:18;;;;;;;2.33;2.07;;;;;;;;;;5101587;28;20207;-79
2023/11/17 10:27:46;;;;;;;2.43;1.83;;;;;;;;;;5107486;28;20226;-79
2023/11/17 10:30:15;;;;;;;2.50;1.97;;;;;;;;;;5099904;28;20257;-78
2023/11/17 10:32:54;;;;;;;3.00;2.70;;;;;;;;;;5096149;28;20207;-78
2023/11/17 10:35:31;;;;;;;3.53;2.17;;;;;;;;;;5106270;28;20256;-79
2023/11/17 10:37:58;;;;;;;2.10;1.90;;;;;;;;;;5100526;28;20208;-78
2023/11/17 10:40:31;;;;;;;1.57;1.47;;;;;;;;;;5103484;28;20245;-80
2023/11/17 10:43:08;;;;;;;1.90;1.80;;;;;;;;;;5099230;28;20219;-81
2023/11/17 10:45:46;;;;;;;2.27;1.60;;;;;;;;;;5103118;28;20281;-81
2023/11/17 10:48:14;;;;;;;1.80;1.70;;;;;;;;;;5101347;28;20234;-82
2023/11/17 10:50:42;;;;;;;2.93;1.57;;;;;;;;;;5094166;28;20226;-81
2023/11/17 10:53:19;;;;;;;2.00;1.80;;;;;;;;;;5101735;28;20204;-80
2023/11/17 10:55:47;;;;;;;3.43;1.77;;;;;;;;;;5091907;28;20203;-80
2023/11/17 10:58:15;;;;;;;3.87;3.53;;;;;;;;;;5091123;28;20208;-81
2023/11/17 11:00:44;;;;;;;2.43;2.23;;;;;;;;;;5098628;28;20697;-80
2023/11/17 11:03:15;;;;;;;3.30;2.23;;;;;;;;;;5095289;28;20204;-80
2023/11/17 11:05:43;;;;;;;3.30;2.03;;;;;;;;;;5090403;28;20193;-81
2023/11/17 11:08:14;;;;;;;4.50;2.50;;;;;;;;;;5091061;28;20254;-80
2023/11/17 11:10:49;;;;;;;3.93;2.43;;;;;;;;;;5090690;28;20206;-81
2023/11/17 11:13:17;;;;;;;2.53;2.33;;;;;;;;;;5091050;28;20196;-81
2023/11/17 11:15:47;;;;;;;3.43;2.20;;;;;;;;;;5102979;28;20243;-81
2023/11/17 11:18:16;;;;;;;7.97;3.30;;;;;;;;;;5090885;28;20208;-81
2023/11/17 11:20:45;;;;;;;2.43;1.90;;;;;;;;;;5104390;28;20230;-81
2023/11/17 11:23:15;;;;;;;3.27;2.07;;;;;;;;;;5092081;28;20287;-80
2023/11/17 11:25:43;;;;;;;2.87;2.27;;;;;;;;;;5094985;28;20200;-81
2023/11/17 11:28:14;;;;;;;2.60;1.70;;;;;;;;;;5094821;28;20203;-81
2023/11/17 11:30:42;;;;;;;2.30;1.80;;;;;;;;;;5107899;28;20205;-81
2023/11/17 11:33:11;;;;;;;2.33;1.83;;;;;;;;;;5103834;28;20291;-81
2023/11/17 11:35:40;;;;;;;2.10;1.90;;;;;;;;;;5097788;28;21005;-81
2023/11/17 11:38:09;;;;;;;2.80;2.00;;;;;;;;;;5094577;28;20288;-81
2023/11/17 11:40:41;;;;;;;4.13;2.83;;;;;;;;;;5107863;28;20204;-81
2023/11/17 11:43:08;;;;;;;4.37;2.70;;;;;;;;;;5106897;28;20249;-81
2023/11/17 11:45:36;;;;;;;2.87;2.03;;;;;;;;;;5095683;28;20196;-81
2023/11/17 11:48:07;;;;;;;3.33;2.33;;;;;;;;;;5094465;28;20204;-81
2023/11/17 11:50:38;;;;;;;2.87;2.60;;;;;;;;;;5094293;28;20283;-81
2023/11/17 11:53:24;;;;;;;2.80;2.50;;;;;;;;;;5094139;28;20206;-82
2023/11/17 11:56:00;;;;;;;3.57;2.30;;;;;;;;;;5103748;28;20191;-81
2023/11/17 11:58:28;;;;;;;4.97;2.87;;;;;;;;;;5110962;28;20195;-81
2023/11/17 12:00:55;;;;;;;3.40;2.40;;;;;;;;;;5104093;28;20219;-81
2023/11/17 12:03:25;;;;;;;2.10;2.00;;;;;;;;;;5100579;28;20204;-81
2023/11/17 12:05:54;;;;;;;2.27;2.07;;;;;;;;;;5114649;28;20230;-81
2023/11/17 12:08:27;;;;;;;3.13;2.77;;;;;;;;;;5113902;28;20196;-81
2023/11/17 12:11:01;;;;;;;2.37;2.23;;;;;;;;;;5101897;28;20196;-81
2023/11/17 12:13:53;;;;;;;11.97;3.60;;;;;;;;;;5101244;28;20203;-81
2023/11/17 12:16:21;;;;;;;3.73;2.90;;;;;;;;;;5086713;28;20332;-81
2023/11/17 12:18:50;;;;;;;2.20;2.00;;;;;;;;;;5104521;28;20261;-82
2023/11/17 12:21:19;;;;;;;4.33;2.37;;;;;;;;;;5095807;28;20592;-81
2023/11/17 12:23:57;;;;;;;6.97;2.50;;;;;;;;;;5094052;28;20232;-81
2023/11/17 12:26:25;;;;;;;2.93;2.73;;;;;;;;;;5107604;28;20260;-81
2023/11/17 12:28:53;;;;;;;4.23;3.30;;;;;;;;;;5093582;28;20698;-81
2023/11/17 12:31:20;;;;;;;6.27;3.03;;;;;;;;;;5100613;28;20203;-81
2023/11/17 12:33:49;;;;;;;2.77;2.57;;;;;;;;;;5099732;28;20201;-82
2023/11/17 12:36:18;;;;;;;3.87;2.87;;;;;;;;;;5092319;28;20663;-80
2023/11/17 12:38:46;;;;;;;2.50;2.30;;;;;;;;;;5106988;28;20203;-81
2023/11/17 12:41:14;;;;;;;3.47;2.53;;;;;;;;;;5101573;28;20226;-81
2023/11/17 12:43:47;;;;;;;3.43;2.47;;;;;;;;;;5099756;28;20296;-81
2023/11/17 12:46:14;;;;;;;3.27;2.70;;;;;;;;;;5103850;28;20279;-81
2023/11/17 12:48:43;;;;;;;3.93;3.03;;;;;;;;;;5106881;28;20210;-81
2023/11/17 12:51:12;;;;;;;8.43;3.57;;;;;;;;;;5093106;28;20681;-81
2023/11/17 12:53:45;;;;;;;5.13;3.70;;;;;;;;;;5110155;28;20681;-81
2023/11/17 12:56:12;;;;;;;9.20;4.83;;;;;;;;;;5113684;28;20592;-81
2023/11/17 12:58:40;;;;;;;3.60;2.93;;;;;;;;;;5107843;28;20204;-81
2023/11/17 13:01:10;;;;;;;4.43;3.47;;;;;;;;;;5104625;28;20227;-81
2023/11/17 13:03:37;;;;;;;8.30;6.57;;;;;;;;;;5093468;28;20681;-81
2023/11/17 13:06:07;;;;;;;6.10;5.33;;;;;;;;;;5093147;28;20200;-81
2023/11/17 13:08:35;;;;;;;7.47;5.33;;;;;;;;;;5092752;28;20641;-80
2023/11/17 13:11:06;;;;;;;7.40;4.50;;;;;;;;;;5092895;28;20261;-81
2023/11/17 13:13:35;;;;;;;8.57;4.80;;;;;;;;;;5092568;28;20196;-81
2023/11/17 13:16:02;;;;;;;5.40;3.57;;;;;;;;;;5107062;28;20286;-81
2023/11/17 13:18:29;;;;;;;3.80;2.73;;;;;;;;;;5112862;28;20203;-81
2023/11/17 13:21:00;;;;;;;7.83;3.00;;;;;;;;;;5098535;28;20269;-81
2023/11/17 13:23:27;;;;;;;2.30;2.10;;;;;;;;;;5113153;28;20604;-81
2023/11/17 13:26:07;;;;;;;3.53;2.40;;;;;;;;;;5110959;28;20210;-81
2023/11/17 13:28:38;;;;;;;3.40;3.03;;;;;;;;;;5102970;28;20260;-81
2023/11/17 13:31:19;;;;;;;2.20;1.70;;;;;;;;;;5112488;28;20639;-81
2023/11/17 13:33:46;;;;;;;3.23;2.60;;;;;;;;;;5112732;28;20218;-81
2023/11/17 13:36:13;;;;;;;3.50;2.37;;;;;;;;;;5105769;28;20203;-80
2023/11/17 13:38:53;;;;;;;3.63;2.73;;;;;;;;;;5091858;28;20210;-81
2023/11/17 13:41:22;;;;;;;4.97;3.23;;;;;;;;;;5092083;28;20626;-81
2023/11/17 13:43:49;;;;;;;3.07;1.83;;;;;;;;;;5092085;28;20681;-81
2023/11/17 13:46:17;;;;;;;2.13;1.90;;;;;;;;;;5101629;28;20203;-81
2023/11/17 13:48:44;;;;;;;3.27;2.07;;;;;;;;;;5095632;28;20212;-81
2023/11/17 13:51:15;;;;;;;2.50;2.00;;;;;;;;;;5092249;28;20210;-81
2023/11/17 13:53:42;;;;;;;2.47;1.90;;;;;;;;;;5108777;28;20304;-81
2023/11/17 13:56:09;;;;;;;7.07;2.50;;;;;;;;;;5102060;28;20200;-80
2023/11/17 13:58:42;;;;;;;3.23;2.57;;;;;;;;;;5091679;28;20204;-82
2023/11/17 14:01:09;;;;;;;2.40;2.20;;;;;;;;;;5091549;28;20669;-81
2023/11/17 14:03:38;;;;;;;3.03;2.67;;;;;;;;;;5105364;28;20287;-81
2023/11/17 14:06:08;;;;;;;2.50;2.30;;;;;;;;;;5091919;28;20379;-80
2023/11/17 14:08:35;;;;;;;3.13;2.47;;;;;;;;;;5098660;28;20274;-81
2023/11/17 14:11:03;;;;;;;2.63;2.20;;;;;;;;;;5098081;28;20207;-81
2023/11/17 14:13:30;;;;;;;3.30;2.27;;;;;;;;;;5098777;28;20207;-81
2023/11/17 14:15:59;;;;;;;2.73;2.20;;;;;;;;;;5111514;28;20204;-82
2023/11/17 14:18:27;;;;;;;3.23;2.63;;;;;;;;;;5099510;28;20199;-82
2023/11/17 14:20:55;;;;;;;3.43;2.80;;;;;;;;;;5097748;28;20740;-82
2023/11/17 14:23:22;;;;;;;4.93;3.20;;;;;;;;;;5111593;28;20838;-81
2023/11/17 14:25:48;;;;;;;4.33;2.80;;;;;;;;;;5111315;28;20213;-81
2023/11/17 14:28:16;;;;;;;3.60;2.40;;;;;;;;;;5102857;28;20291;-81
2023/11/17 14:30:43;;;;;;;3.47;2.23;;;;;;;;;;5091021;28;20196;-81
2023/11/17 14:33:11;;;;;;;3.70;2.80;;;;;;;;;;5091206;28;20207;-82
2023/11/17 14:35:38;;;;;;;10.03;4.67;;;;;;;;;;5091393;28;20210;-82
2023/11/17 14:38:07;;;;;;;6.13;4.00;;;;;;;;;;5106301;28;20661;-82
2023/11/17 14:40:35;;;;;;;5.40;3.60;;;;;;;;;;5110984;28;20202;-81
2023/11/17 14:43:02;;;;;;;4.20;3.80;;;;;;;;;;5111538;28;20594;-81
2023/11/17 14:45:29;;;;;;;4.33;2.60;;;;;;;;;;5108610;28;20199;-79
2023/11/17 14:47:58;;;;;;;7.97;4.63;;;;;;;;;;5098765;28;20615;-79
2023/11/17 14:50:27;;;;;;;8.20;7.50;;;;;;;;;;5090553;28;20203;-80